sensor_id;sensor_type;location;lat;lon;timestamp;pressure;altitude;pressure_sealevel;temperature;humidity
11172;BME280;5642;50.830;12.082;2023-03-03T01:22:15;99956.31;;;6.17;34.02
11172;BME280;5642;50.830;12.082;2023-03-03T01:24:41;99910.47;;;5.90;34.08
11172;BME280;5642;50.830;12.082;2023-03-03T01:27:08;99933.81;;;6.10;34.13
11172;BME280;5642;50.830;12.082;2023-03-03T01:29:37;99911.31;;;5.97;34.19
11172;BME280;5642;50.830;12.082;2023-03-03T01:32:03;99977.00;;;6.39;34.26
11172;BME280;5642;50.830;12.082;2023-03-03T01:34:31;99971.78;;;6.40;34.42
11172;BME280;5642;50.830;12.082;2023-03-03T01:36:57;99951.88;;;6.38;34.44
11172;BME280;5642;50.830;12.082;2023-03-03T01:39:26;99980.31;;;6.63;34.07
11172;BME280;5642;50.830;12.082;2023-03-03T01:41:52;99987.22;;;6.72;34.31
11172;BME280;5642;50.830;12.082;2023-03-03T01:44:18;99988.91;;;6.78;34.18
11172;BME280;5642;50.830;12.082;2023-03-03T01:49:35;99990.59;;;6.83;33.65
11172;BME280;5642;50.830;12.082;2023-03-03T01:55:07;99987.16;;;6.75;34.03
11172;BME280;5642;50.830;12.082;2023-03-03T01:57:40;99933.66;;;6.36;33.97
11172;BME280;5642;50.830;12.082;2023-03-03T02:00:10;99931.09;;;6.27;34.18
11172;BME280;5642;50.830;12.082;2023-03-03T02:02:37;99938.06;;;6.25;34.38
11172;BME280;5642;50.830;12.082;2023-03-03T02:05:06;99919.91;;;6.13;33.93
11172;BME280;5642;50.830;12.082;2023-03-03T02:07:32;99941.56;;;6.18;34.57
11172;BME280;5642;50.830;12.082;2023-03-03T02:10:14;100001.22;;;6.48;34.44
11172;BME280;5642;50.830;12.082;2023-03-03T02:12:53;99996.06;;;6.42;34.26
11172;BME280;5642;50.830;12.082;2023-03-03T02:17:51;99990.09;;;6.25;34.49
11172;BME280;5642;50.830;12.082;2023-03-03T02:23:12;99980.63;;;6.10;34.50
11172;BME280;5642;50.830;12.082;2023-03-03T02:28:13;99942.53;;;5.83;34.58
11172;BME280;5642;50.830;12.082;2023-03-03T02:30:39;99963.31;;;6.00;34.65
11172;BME280;5642;50.830;12.082;2023-03-03T02:33:07;99969.34;;;6.05;34.72
11172;BME280;5642;50.830;12.082;2023-03-03T02:35:37;99971.97;;;6.05;34.56
11172;BME280;5642;50.830;12.082;2023-03-03T02:41:14;99966.81;;;5.90;34.58
11172;BME280;5642;50.830;12.082;2023-03-03T02:43:55;99951.25;;;5.76;34.79
11172;BME280;5642;50.830;12.082;2023-03-03T02:46:23;99977.22;;;5.76;34.72
11172;BME280;5642;50.830;12.082;2023-03-03T02:48:49;99942.66;;;5.50;35.03
11172;BME280;5642;50.830;12.082;2023-03-03T02:51:15;99914.16;;;5.30;34.87
11172;BME280;5642;50.830;12.082;2023-03-03T02:53:42;99974.69;;;5.63;34.94
11172;BME280;5642;50.830;12.082;2023-03-03T02:56:08;99974.66;;;5.75;34.78
11172;BME280;5642;50.830;12.082;2023-03-03T02:58:37;99925.34;;;5.47;34.95
11172;BME280;5642;50.830;12.082;2023-03-03T03:01:03;99959.06;;;5.73;34.61
11172;BME280;5642;50.830;12.082;2023-03-03T03:03:30;99902.84;;;5.46;34.77
11172;BME280;5642;50.830;12.082;2023-03-03T03:05:56;99965.94;;;5.85;35.01
11172;BME280;5642;50.830;12.082;2023-03-03T03:08:22;99956.44;;;5.81;34.76
11172;BME280;5642;50.830;12.082;2023-03-03T03:10:49;99922.72;;;5.60;34.80
11172;BME280;5642;50.830;12.082;2023-03-03T03:13:15;99971.13;;;5.83;34.88
11172;BME280;5642;50.830;12.082;2023-03-03T03:15:44;99987.63;;;5.96;34.90
11172;BME280;5642;50.830;12.082;2023-03-03T03:18:11;99927.91;;;5.64;34.79
11172;BME280;5642;50.830;12.082;2023-03-03T07:20:43;100095.09;;;5.80;36.14
11172;BME280;5642;50.830;12.082;2023-03-03T07:23:23;100089.00;;;5.85;35.98
11172;BME280;5642;50.830;12.082;2023-03-03T07:25:52;100037.09;;;5.54;36.10
11172;BME280;5642;50.830;12.082;2023-03-03T07:28:27;100068.22;;;5.70;36.09
11172;BME280;5642;50.830;12.082;2023-03-03T07:30:57;100106.38;;;5.96;35.80
11172;BME280;5642;50.830;12.082;2023-03-03T07:33:45;100097.72;;;5.89;35.71
11172;BME280;5642;50.830;12.082;2023-03-03T07:36:35;100044.88;;;5.60;36.08
11172;BME280;5642;50.830;12.082;2023-03-03T07:42:20;100091.63;;;5.87;35.88
11172;BME280;5642;50.830;12.082;2023-03-03T07:44:53;100038.78;;;5.73;36.26
11172;BME280;5642;50.830;12.082;2023-03-03T07:47:34;100127.13;;;6.23;36.13
11172;BME280;5642;50.830;12.082;2023-03-03T07:50:22;100058.66;;;5.84;36.19
11172;BME280;5642;50.830;12.082;2023-03-03T07:52:57;100062.16;;;5.91;35.93
11172;BME280;5642;50.830;12.082;2023-03-03T07:55:38;100065.63;;;5.96;36.19
11172;BME280;5642;50.830;12.082;2023-03-03T08:03:18;100140.09;;;6.32;36.23
11172;BME280;5642;50.830;12.082;2023-03-03T08:05:48;100160.91;;;6.37;35.97
11172;BME280;5642;50.830;12.082;2023-03-03T08:16:29;100125.41;;;6.10;36.22
11172;BME280;5642;50.830;12.082;2023-03-03T08:19:04;100102.03;;;6.04;35.95
11172;BME280;5642;50.830;12.082;2023-03-03T08:21:32;100103.72;;;6.14;36.30
11172;BME280;5642;50.830;12.082;2023-03-03T08:24:00;100126.22;;;6.30;36.42
11172;BME280;5642;50.830;12.082;2023-03-03T08:26:27;100115.81;;;6.28;36.11
11172;BME280;5642;50.830;12.082;2023-03-03T08:28:53;100137.44;;;6.47;36.10
11172;BME280;5642;50.830;12.082;2023-03-03T08:31:20;100132.22;;;6.53;36.39
11172;BME280;5642;50.830;12.082;2023-03-03T08:33:47;100120.06;;;6.51;35.99
11172;BME280;5642;50.830;12.082;2023-03-03T08:36:13;100137.41;;;6.56;35.92
11172;BME280;5642;50.830;12.082;2023-03-03T08:41:48;100113.19;;;6.33;36.32
11172;BME280;5642;50.830;12.082;2023-03-03T08:44:17;100116.69;;;6.27;36.28
11172;BME280;5642;50.830;12.082;2023-03-03T08:46:48;100099.38;;;6.17;36.02
11172;BME280;5642;50.830;12.082;2023-03-03T08:49:17;100153.03;;;6.50;36.28
11172;BME280;5642;50.830;12.082;2023-03-03T08:51:51;100107.16;;;6.23;35.93
11172;BME280;5642;50.830;12.082;2023-03-03T08:54:20;100098.50;;;6.12;36.26
11172;BME280;5642;50.830;12.082;2023-03-03T08:56:50;100144.41;;;6.35;36.51
11172;BME280;5642;50.830;12.082;2023-03-03T08:59:17;100111.53;;;6.11;36.16
11172;BME280;5642;50.830;12.082;2023-03-03T09:01:45;100108.94;;;6.08;36.39
11172;BME280;5642;50.830;12.082;2023-03-03T09:04:12;100140.09;;;6.20;36.15
11172;BME280;5642;50.830;12.082;2023-03-03T09:06:43;100138.41;;;6.17;36.35
11172;BME280;5642;50.830;12.082;2023-03-03T09:09:13;100130.59;;;6.16;35.85
11172;BME280;5642;50.830;12.082;2023-03-03T09:11:39;100134.91;;;6.27;36.46
11172;BME280;5642;50.830;12.082;2023-03-03T09:14:14;100159.13;;;6.52;36.34
11172;BME280;5642;50.830;12.082;2023-03-03T09:16:52;100145.25;;;6.49;35.98
11172;BME280;5642;50.830;12.082;2023-03-03T09:19:32;100162.53;;;6.62;35.93
11172;BME280;5642;50.830;12.082;2023-03-03T09:22:24;100180.72;;;6.79;36.30
11172;BME280;5642;50.830;12.082;2023-03-03T09:24:57;100105.38;;;6.39;36.38
11172;BME280;5642;50.830;12.082;2023-03-03T09:27:29;100156.41;;;6.75;36.46
11172;BME280;5642;50.830;12.082;2023-03-03T09:33:19;100160.72;;;6.85;35.99
11172;BME280;5642;50.830;12.082;2023-03-03T09:36:00;100088.84;;;6.49;36.10
11172;BME280;5642;50.830;12.082;2023-03-03T09:38:40;100171.94;;;6.99;36.10
11172;BME280;5642;50.830;12.082;2023-03-03T09:47:05;100186.53;;;7.26;35.47
11172;BME280;5642;50.830;12.082;2023-03-03T09:51:00;100169.16;;;7.28;35.73
11172;BME280;5642;50.830;12.082;2023-03-03T09:55:38;100178.63;;;7.40;36.50
11172;BME280;5642;50.830;12.082;2023-03-03T09:58:22;100184.72;;;7.43;36.23
11172;BME280;5642;50.830;12.082;2023-03-03T10:01:20;100187.31;;;7.45;36.11
11172;BME280;5642;50.830;12.082;2023-03-03T10:04:18;100187.28;;;7.48;36.30
11172;BME280;5642;50.830;12.082;2023-03-03T11:35:16;100195.66;;;7.93;35.99
11172;BME280;5642;50.830;12.082;2023-03-03T11:40:49;100167.94;;;7.79;35.49
11172;BME280;5642;50.830;12.082;2023-03-03T11:43:33;100115.09;;;7.53;35.67
11172;BME280;5642;50.830;12.082;2023-03-03T11:46:13;100110.75;;;7.54;35.82
11172;BME280;5642;50.830;12.082;2023-03-03T11:56:02;100166.00;;;8.00;35.83
11172;BME280;5642;50.830;12.082;2023-03-03T12:05:49;100135.50;;;8.06;35.99
11172;BME280;5642;50.830;12.082;2023-03-03T12:11:24;100092.13;;;7.96;36.06
11172;BME280;5642;50.830;12.082;2023-03-03T12:13:53;100174.31;;;8.44;35.22
11172;BME280;5642;50.830;12.082;2023-03-03T12:16:56;100149.09;;;8.40;35.41
11172;BME280;5642;50.830;12.082;2023-03-03T12:19:28;100167.19;;;8.57;35.54
11172;BME280;5642;50.830;12.082;2023-03-03T14:29:35;100074.34;;;10.03;35.52
11172;BME280;5642;50.830;12.082;2023-03-03T14:32:26;100025.97;;;9.79;35.37
11172;BME280;5642;50.830;12.082;2023-03-03T14:35:00;100001.00;;;9.60;35.45
11172;BME280;5642;50.830;12.082;2023-03-03T14:37:45;100077.97;;;9.95;35.66
11172;BME280;5642;50.830;12.082;2023-03-03T14:40:16;100072.06;;;9.85;35.50
11172;BME280;5642;50.830;12.082;2023-03-03T14:45:41;100070.63;;;9.67;35.52
11172;BME280;5642;50.830;12.082;2023-03-03T14:48:23;99999.97;;;9.20;35.42
11172;BME280;5642;50.830;12.082;2023-03-03T14:50:57;100072.50;;;9.59;35.24
11172;BME280;5642;50.830;12.082;2023-03-03T14:53:36;100071.69;;;9.59;35.26
11172;BME280;5642;50.830;12.082;2023-03-03T14:56:29;100070.84;;;9.57;35.69
11172;BME280;5642;50.830;12.082;2023-03-03T14:59:29;100063.09;;;9.51;35.43
11172;BME280;5642;50.830;12.082;2023-03-03T15:04:51;100057.00;;;9.49;35.62
11172;BME280;5642;50.830;12.082;2023-03-03T15:07:34;99970.81;;;8.93;35.75
11172;BME280;5642;50.830;12.082;2023-03-03T15:10:02;100038.13;;;9.31;35.91
11172;BME280;5642;50.830;12.082;2023-03-03T15:12:35;100030.34;;;9.28;35.60
11172;BME280;5642;50.830;12.082;2023-03-03T15:17:39;99953.44;;;8.89;35.52
11172;BME280;5642;50.830;12.082;2023-03-03T16:32:40;100038.47;;;8.52;36.25
11172;BME280;5642;50.830;12.082;2023-03-03T16:35:22;100035.88;;;8.47;36.56
11172;BME280;5642;50.830;12.082;2023-03-03T16:41:00;100048.16;;;8.39;36.24
11172;BME280;5642;50.830;12.082;2023-03-03T16:46:27;99987.91;;;7.85;36.39
11172;BME280;5642;50.830;12.082;2023-03-03T16:49:30;99980.19;;;7.75;36.81
11172;BME280;5642;50.830;12.082;2023-03-03T16:52:11;100057.13;;;8.17;36.87
11172;BME280;5642;50.830;12.082;2023-03-03T17:00:22;100054.63;;;8.06;36.25
11172;BME280;5642;50.830;12.082;2023-03-03T17:06:10;100002.03;;;7.65;36.68
11172;BME280;5642;50.830;12.082;2023-03-03T17:17:04;100022.09;;;7.57;36.15
11172;BME280;5642;50.830;12.082;2023-03-03T17:19:47;100085.22;;;7.89;36.72
11172;BME280;5642;50.830;12.082;2023-03-03T18:26:02;100101.94;;;7.68;36.99
11172;BME280;5642;50.830;12.082;2023-03-03T18:31:25;100091.53;;;7.68;37.02
11172;BME280;5642;50.830;12.082;2023-03-03T18:34:08;100090.63;;;7.71;37.33
11172;BME280;5642;50.830;12.082;2023-03-03T18:36:38;100098.44;;;7.72;37.01
11172;BME280;5642;50.830;12.082;2023-03-03T18:39:05;100067.31;;;7.56;37.16
11172;BME280;5642;50.830;12.082;2023-03-03T18:44:43;100094.97;;;7.73;36.88
11172;BME280;5642;50.830;12.082;2023-03-03T18:47:10;100059.53;;;7.51;37.32
11172;BME280;5642;50.830;12.082;2023-03-03T18:52:24;100077.72;;;7.56;36.79
11172;BME280;5642;50.830;12.082;2023-03-03T18:57:36;100025.03;;;7.20;37.12
11172;BME280;5642;50.830;12.082;2023-03-03T19:00:21;100105.47;;;7.63;37.00
11172;BME280;5642;50.830;12.082;2023-03-03T19:02:53;100023.41;;;7.10;36.88
11172;BME280;5642;50.830;12.082;2023-03-03T19:05:25;100020.81;;;7.08;37.08
11172;BME280;5642;50.830;12.082;2023-03-03T19:07:59;100078.78;;;7.36;37.16
11172;BME280;5642;50.830;12.082;2023-03-03T19:10:50;100101.25;;;7.51;37.31
11172;BME280;5642;50.830;12.082;2023-03-03T19:16:06;100104.72;;;7.47;37.21
11172;BME280;5642;50.830;12.082;2023-03-03T19:23:58;100103.00;;;7.46;37.09
11172;BME280;5642;50.830;12.082;2023-03-03T19:37:08;100102.97;;;7.51;37.06
11172;BME280;5642;50.830;12.082;2023-03-03T19:46:33;100098.75;;;7.36;37.33
11172;BME280;5642;50.830;12.082;2023-03-03T19:57:44;100104.84;;;7.35;37.05
11172;BME280;5642;50.830;12.082;2023-03-03T20:09:01;100061.63;;;7.06;37.56
11172;BME280;5642;50.830;12.082;2023-03-03T20:11:59;100083.28;;;7.13;37.40
11172;BME280;5642;50.830;12.082;2023-03-03T20:28:34;100112.59;;;7.44;37.03
11172;BME280;5642;50.830;12.082;2023-03-03T20:31:07;100115.22;;;7.42;37.30
11172;BME280;5642;50.830;12.082;2023-03-03T20:33:54;100056.41;;;7.10;37.15
11172;BME280;5642;50.830;12.082;2023-03-03T20:36:24;100119.59;;;7.34;37.94
11172;BME280;5642;50.830;12.082;2023-03-03T20:50:26;100115.41;;;7.17;37.65
11172;BME280;5642;50.830;12.082;2023-03-03T20:56:09;100111.94;;;7.12;37.52
11172;BME280;5642;50.830;12.082;2023-03-03T21:01:32;100103.25;;;7.13;37.64
11172;BME280;5642;50.830;12.082;2023-03-03T21:04:36;100102.38;;;7.11;37.25
11172;BME280;5642;50.830;12.082;2023-03-03T21:07:05;100028.91;;;6.66;37.73
11172;BME280;5642;50.830;12.082;2023-03-03T21:09:34;100034.13;;;6.67;38.00
11172;BME280;5642;50.830;12.082;2023-03-03T21:12:24;100102.38;;;7.15;37.83
11172;BME280;5642;50.830;12.082;2023-03-03T21:15:04;100078.97;;;7.06;37.96
11172;BME280;5642;50.830;12.082;2023-03-03T21:17:34;100017.59;;;6.72;37.96
11172;BME280;5642;50.830;12.082;2023-03-03T22:23:53;100066.25;;;6.56;37.80
11172;BME280;5642;50.830;12.082;2023-03-03T22:26:19;100077.47;;;6.70;37.62
11172;BME280;5642;50.830;12.082;2023-03-03T22:28:49;100075.72;;;6.69;38.26
11172;BME280;5642;50.830;12.082;2023-03-03T22:31:18;100012.56;;;6.35;38.25
11172;BME280;5642;50.830;12.082;2023-03-03T22:33:47;100030.75;;;6.41;37.65
11172;BME280;5642;50.830;12.082;2023-03-03T22:36:22;100007.41;;;6.27;37.90
11172;BME280;5642;50.830;12.082;2023-03-03T22:38:55;100071.47;;;6.60;37.89
11172;BME280;5642;50.830;12.082;2023-03-03T22:41:31;100053.28;;;6.51;38.12
11172;BME280;5642;50.830;12.082;2023-03-03T22:44:07;100044.59;;;6.49;38.30
11172;BME280;5642;50.830;12.082;2023-03-03T22:46:34;99998.75;;;6.25;38.00
11172;BME280;5642;50.830;12.082;2023-03-03T22:49:00;99980.56;;;6.21;38.22
11172;BME280;5642;50.830;12.082;2023-03-03T22:51:27;99979.69;;;6.25;38.26
11172;BME280;5642;50.830;12.082;2023-03-03T22:53:53;99986.56;;;6.37;37.83
11172;BME280;5642;50.830;12.082;2023-03-03T22:56:19;99973.63;;;6.24;37.80
11172;BME280;5642;50.830;12.082;2023-03-03T22:58:45;99990.03;;;6.36;37.96
11172;BME280;5642;50.830;12.082;2023-03-03T23:01:12;100047.09;;;6.72;38.20
11172;BME280;5642;50.830;12.082;2023-03-03T23:03:38;100004.72;;;6.44;37.95
11172;BME280;5642;50.830;12.082;2023-03-03T23:06:04;100036.72;;;6.63;38.01
11172;BME280;5642;50.830;12.082;2023-03-03T23:08:31;100045.41;;;6.65;38.17
11172;BME280;5642;50.830;12.082;2023-03-03T23:10:57;100038.50;;;6.56;37.89
11172;BME280;5642;50.830;12.082;2023-03-03T23:13:23;99964.13;;;6.13;38.11
11172;BME280;5642;50.830;12.082;2023-03-03T23:15:51;99957.22;;;6.09;38.27
11172;BME280;5642;50.830;12.082;2023-03-03T23:18:17;99983.13;;;6.32;38.04
11172;BME280;5642;50.830;12.082;2023-03-03T23:20:45;100026.34;;;6.60;38.35
11172;BME280;5642;50.830;12.082;2023-03-03T23:41:37;100032.63;;;6.15;38.39
11172;BME280;5642;50.830;12.082;2023-03-03T23:44:05;100020.50;;;6.08;38.31
11172;BME280;5642;50.830;12.082;2023-03-03T23:46:31;99970.31;;;5.80;38.37
11172;BME280;5642;50.830;12.082;2023-03-03T23:48:57;100006.66;;;6.03;38.41
11172;BME280;5642;50.830;12.082;2023-03-03T23:51:24;99980.69;;;5.92;38.21
11172;BME280;5642;50.830;12.082;2023-03-03T23:53:51;100039.50;;;6.29;38.43
11172;BME280;5642;50.830;12.082;2023-03-03T23:56:17;99977.19;;;6.01;38.64
11172;BME280;5642;50.830;12.082;2023-03-03T23:58:45;100019.53;;;6.35;38.46
